sensor_id;sensor_type;location;lat;lon;timestamp;P1;durP1;ratioP1;P2;durP2;ratioP2
23044;SDS011;11690;51.716;23.066;2023-08-08T00:00:09;4.22;;;2.38;;
23044;SDS011;11690;51.716;23.066;2023-08-08T00:02:58;4.10;;;2.22;;
23044;SDS011;11690;51.716;23.066;2023-08-08T00:05:25;2.90;;;1.98;;
23044;SDS011;11690;51.716;23.066;2023-08-08T00:07:52;5.50;;;2.22;;
23044;SDS011;11690;51.716;23.066;2023-08-08T00:10:20;3.30;;;2.38;;
23044;SDS011;11690;51.716;23.066;2023-08-08T00:12:47;4.38;;;1.90;;
23044;SDS011;11690;51.716;23.066;2023-08-08T00:15:14;5.60;;;2.05;;
23044;SDS011;11690;51.716;23.066;2023-08-08T00:17:41;3.90;;;2.15;;
23044;SDS011;11690;51.716;23.066;2023-08-08T00:20:09;3.63;;;1.98;;
23044;SDS011;11690;51.716;23.066;2023-08-08T00:22:36;3.88;;;2.38;;
23044;SDS011;11690;51.716;23.066;2023-08-08T00:25:03;2.53;;;1.88;;
23044;SDS011;11690;51.716;23.066;2023-08-08T00:27:30;3.60;;;1.77;;
23044;SDS011;11690;51.716;23.066;2023-08-08T00:30:00;3.30;;;2.00;;
23044;SDS011;11690;51.716;23.066;2023-08-08T00:32:27;2.38;;;1.95;;
23044;SDS011;11690;51.716;23.066;2023-08-08T00:34:55;3.42;;;2.10;;
23044;SDS011;11690;51.716;23.066;2023-08-08T00:37:22;2.25;;;1.77;;
23044;SDS011;11690;51.716;23.066;2023-08-08T00:39:49;3.10;;;2.10;;
23044;SDS011;11690;51.716;23.066;2023-08-08T00:42:16;5.30;;;2.03;;
23044;SDS011;11690;51.716;23.066;2023-08-08T00:44:43;3.75;;;1.73;;
23044;SDS011;11690;51.716;23.066;2023-08-08T00:47:10;3.03;;;1.88;;
23044;SDS011;11690;51.716;23.066;2023-08-08T00:49:38;2.95;;;1.75;;
23044;SDS011;11690;51.716;23.066;2023-08-08T00:52:05;3.00;;;1.80;;
23044;SDS011;11690;51.716;23.066;2023-08-08T00:54:33;6.43;;;1.95;;
23044;SDS011;11690;51.716;23.066;2023-08-08T00:57:01;2.60;;;1.77;;
23044;SDS011;11690;51.716;23.066;2023-08-08T00:59:28;2.70;;;1.80;;
23044;SDS011;11690;51.716;23.066;2023-08-08T01:01:56;2.20;;;1.67;;
23044;SDS011;11690;51.716;23.066;2023-08-08T01:04:27;3.60;;;2.05;;
23044;SDS011;11690;51.716;23.066;2023-08-08T01:09:55;4.43;;;1.90;;
23044;SDS011;11690;51.716;23.066;2023-08-08T01:12:53;2.53;;;1.77;;
23044;SDS011;11690;51.716;23.066;2023-08-08T01:15:23;3.65;;;1.70;;
23044;SDS011;11690;51.716;23.066;2023-08-08T01:17:50;3.33;;;2.05;;
23044;SDS011;11690;51.716;23.066;2023-08-08T01:20:18;2.67;;;1.70;;
23044;SDS011;11690;51.716;23.066;2023-08-08T01:25:26;3.08;;;1.90;;
23044;SDS011;11690;51.716;23.066;2023-08-08T01:27:53;3.22;;;1.75;;
23044;SDS011;11690;51.716;23.066;2023-08-08T01:30:20;2.45;;;1.73;;
23044;SDS011;11690;51.716;23.066;2023-08-08T01:32:47;2.65;;;2.00;;
23044;SDS011;11690;51.716;23.066;2023-08-08T01:35:15;4.22;;;1.98;;
23044;SDS011;11690;51.716;23.066;2023-08-08T01:37:48;3.55;;;1.90;;
23044;SDS011;11690;51.716;23.066;2023-08-08T01:40:18;2.88;;;2.15;;
23044;SDS011;11690;51.716;23.066;2023-08-08T01:42:46;3.33;;;2.28;;
23044;SDS011;11690;51.716;23.066;2023-08-08T01:45:17;3.42;;;2.33;;
23044;SDS011;11690;51.716;23.066;2023-08-08T01:47:50;3.65;;;2.15;;
23044;SDS011;11690;51.716;23.066;2023-08-08T01:50:18;2.72;;;2.00;;
23044;SDS011;11690;51.716;23.066;2023-08-08T01:52:45;2.50;;;1.90;;
23044;SDS011;11690;51.716;23.066;2023-08-08T01:55:12;2.92;;;2.08;;
23044;SDS011;11690;51.716;23.066;2023-08-08T01:57:39;3.95;;;2.20;;
23044;SDS011;11690;51.716;23.066;2023-08-08T02:00:07;2.53;;;1.90;;
23044;SDS011;11690;51.716;23.066;2023-08-08T02:02:43;2.60;;;2.10;;
23044;SDS011;11690;51.716;23.066;2023-08-08T02:05:11;2.72;;;2.22;;
23044;SDS011;11690;51.716;23.066;2023-08-08T02:07:38;2.40;;;1.90;;
23044;SDS011;11690;51.716;23.066;2023-08-08T02:10:06;3.63;;;2.15;;
23044;SDS011;11690;51.716;23.066;2023-08-08T02:12:33;6.25;;;2.22;;
23044;SDS011;11690;51.716;23.066;2023-08-08T02:15:00;4.00;;;2.45;;
23044;SDS011;11690;51.716;23.066;2023-08-08T02:17:28;2.72;;;2.20;;
23044;SDS011;11690;51.716;23.066;2023-08-08T02:19:56;4.30;;;2.05;;
23044;SDS011;11690;51.716;23.066;2023-08-08T02:22:24;3.15;;;2.03;;
23044;SDS011;11690;51.716;23.066;2023-08-08T02:24:52;3.75;;;1.95;;
23044;SDS011;11690;51.716;23.066;2023-08-08T02:27:19;3.50;;;2.13;;
23044;SDS011;11690;51.716;23.066;2023-08-08T02:29:46;3.95;;;2.35;;
23044;SDS011;11690;51.716;23.066;2023-08-08T02:32:13;3.42;;;2.42;;
23044;SDS011;11690;51.716;23.066;2023-08-08T02:34:41;6.57;;;2.33;;
23044;SDS011;11690;51.716;23.066;2023-08-08T02:37:08;3.25;;;2.17;;
23044;SDS011;11690;51.716;23.066;2023-08-08T02:39:36;3.10;;;2.10;;
23044;SDS011;11690;51.716;23.066;2023-08-08T02:42:03;4.60;;;2.20;;
23044;SDS011;11690;51.716;23.066;2023-08-08T02:44:31;5.53;;;2.53;;
23044;SDS011;11690;51.716;23.066;2023-08-08T02:46:58;2.78;;;2.05;;
23044;SDS011;11690;51.716;23.066;2023-08-08T02:49:26;7.88;;;2.60;;
23044;SDS011;11690;51.716;23.066;2023-08-08T02:51:53;3.25;;;2.30;;
23044;SDS011;11690;51.716;23.066;2023-08-08T02:54:21;5.43;;;1.90;;
23044;SDS011;11690;51.716;23.066;2023-08-08T02:56:48;6.20;;;2.00;;
23044;SDS011;11690;51.716;23.066;2023-08-08T02:59:17;3.75;;;2.00;;
23044;SDS011;11690;51.716;23.066;2023-08-08T03:01:44;3.40;;;1.75;;
23044;SDS011;11690;51.716;23.066;2023-08-08T03:04:16;5.80;;;2.00;;
23044;SDS011;11690;51.716;23.066;2023-08-08T03:06:44;3.63;;;1.80;;
23044;SDS011;11690;51.716;23.066;2023-08-08T03:09:13;1.88;;;1.60;;
23044;SDS011;11690;51.716;23.066;2023-08-08T03:11:41;5.78;;;1.67;;
23044;SDS011;11690;51.716;23.066;2023-08-08T03:14:12;2.45;;;1.73;;
23044;SDS011;11690;51.716;23.066;2023-08-08T03:16:39;4.75;;;2.00;;
23044;SDS011;11690;51.716;23.066;2023-08-08T03:19:08;7.20;;;2.08;;
23044;SDS011;11690;51.716;23.066;2023-08-08T03:21:37;8.40;;;1.85;;
23044;SDS011;11690;51.716;23.066;2023-08-08T03:24:05;2.80;;;1.75;;
23044;SDS011;11690;51.716;23.066;2023-08-08T03:26:32;3.70;;;1.92;;
23044;SDS011;11690;51.716;23.066;2023-08-08T03:28:59;3.00;;;1.83;;
23044;SDS011;11690;51.716;23.066;2023-08-08T03:31:36;4.25;;;1.70;;
23044;SDS011;11690;51.716;23.066;2023-08-08T03:34:04;5.25;;;1.55;;
23044;SDS011;11690;51.716;23.066;2023-08-08T03:36:33;4.20;;;2.38;;
23044;SDS011;11690;51.716;23.066;2023-08-08T03:39:01;3.50;;;2.03;;
23044;SDS011;11690;51.716;23.066;2023-08-08T03:41:30;3.40;;;2.00;;
23044;SDS011;11690;51.716;23.066;2023-08-08T03:43:57;4.90;;;2.38;;
23044;SDS011;11690;51.716;23.066;2023-08-08T03:46:25;2.70;;;1.90;;
23044;SDS011;11690;51.716;23.066;2023-08-08T03:48:52;4.10;;;1.60;;
23044;SDS011;11690;51.716;23.066;2023-08-08T03:51:20;3.88;;;1.65;;
23044;SDS011;11690;51.716;23.066;2023-08-08T03:53:48;6.70;;;1.90;;
23044;SDS011;11690;51.716;23.066;2023-08-08T03:56:15;4.70;;;1.85;;
23044;SDS011;11690;51.716;23.066;2023-08-08T03:58:42;3.70;;;2.20;;
23044;SDS011;11690;51.716;23.066;2023-08-08T04:01:10;4.60;;;1.95;;
23044;SDS011;11690;51.716;23.066;2023-08-08T04:03:37;3.95;;;2.08;;
23044;SDS011;11690;51.716;23.066;2023-08-08T04:06:04;4.78;;;1.92;;
23044;SDS011;11690;51.716;23.066;2023-08-08T04:08:33;3.55;;;2.13;;
23044;SDS011;11690;51.716;23.066;2023-08-08T04:11:00;3.00;;;2.13;;
23044;SDS011;11690;51.716;23.066;2023-08-08T04:13:28;5.82;;;2.10;;
23044;SDS011;11690;51.716;23.066;2023-08-08T04:15:55;3.00;;;2.00;;
23044;SDS011;11690;51.716;23.066;2023-08-08T04:18:22;8.48;;;2.05;;
23044;SDS011;11690;51.716;23.066;2023-08-08T04:20:49;3.70;;;1.75;;
23044;SDS011;11690;51.716;23.066;2023-08-08T04:23:17;5.13;;;1.73;;
23044;SDS011;11690;51.716;23.066;2023-08-08T04:25:44;3.90;;;2.15;;
23044;SDS011;11690;51.716;23.066;2023-08-08T04:28:11;5.30;;;1.85;;
23044;SDS011;11690;51.716;23.066;2023-08-08T04:30:38;2.17;;;1.60;;
23044;SDS011;11690;51.716;23.066;2023-08-08T04:33:06;2.95;;;1.30;;
23044;SDS011;11690;51.716;23.066;2023-08-08T04:35:33;4.78;;;1.38;;
23044;SDS011;11690;51.716;23.066;2023-08-08T04:38:00;2.67;;;1.40;;
23044;SDS011;11690;51.716;23.066;2023-08-08T04:40:27;5.63;;;1.83;;
23044;SDS011;11690;51.716;23.066;2023-08-08T04:42:54;2.85;;;1.63;;
23044;SDS011;11690;51.716;23.066;2023-08-08T04:45:22;4.07;;;1.65;;
23044;SDS011;11690;51.716;23.066;2023-08-08T04:47:49;5.63;;;1.38;;
23044;SDS011;11690;51.716;23.066;2023-08-08T04:50:16;3.17;;;1.70;;
23044;SDS011;11690;51.716;23.066;2023-08-08T04:52:44;4.47;;;1.92;;
23044;SDS011;11690;51.716;23.066;2023-08-08T04:55:11;3.13;;;1.30;;
23044;SDS011;11690;51.716;23.066;2023-08-08T04:57:38;2.50;;;1.45;;
23044;SDS011;11690;51.716;23.066;2023-08-08T05:00:06;3.40;;;1.40;;
23044;SDS011;11690;51.716;23.066;2023-08-08T05:02:35;1.45;;;1.08;;
23044;SDS011;11690;51.716;23.066;2023-08-08T05:05:03;2.78;;;1.30;;
23044;SDS011;11690;51.716;23.066;2023-08-08T05:07:30;4.25;;;1.35;;
23044;SDS011;11690;51.716;23.066;2023-08-08T05:09:58;2.50;;;1.08;;
23044;SDS011;11690;51.716;23.066;2023-08-08T05:12:25;4.65;;;1.30;;
23044;SDS011;11690;51.716;23.066;2023-08-08T05:14:54;2.97;;;1.27;;
23044;SDS011;11690;51.716;23.066;2023-08-08T05:17:21;2.65;;;1.00;;
23044;SDS011;11690;51.716;23.066;2023-08-08T05:19:49;3.38;;;1.20;;
23044;SDS011;11690;51.716;23.066;2023-08-08T05:22:15;5.30;;;1.25;;
23044;SDS011;11690;51.716;23.066;2023-08-08T05:24:43;2.95;;;1.10;;
23044;SDS011;11690;51.716;23.066;2023-08-08T05:27:10;2.70;;;1.05;;
23044;SDS011;11690;51.716;23.066;2023-08-08T05:29:38;3.92;;;1.10;;
23044;SDS011;11690;51.716;23.066;2023-08-08T05:32:06;3.50;;;1.23;;
23044;SDS011;11690;51.716;23.066;2023-08-08T05:34:34;3.72;;;1.20;;
23044;SDS011;11690;51.716;23.066;2023-08-08T05:37:01;5.65;;;1.13;;
23044;SDS011;11690;51.716;23.066;2023-08-08T05:39:42;2.05;;;1.00;;
23044;SDS011;11690;51.716;23.066;2023-08-08T05:42:10;1.75;;;1.02;;
23044;SDS011;11690;51.716;23.066;2023-08-08T05:44:37;4.40;;;1.33;;
23044;SDS011;11690;51.716;23.066;2023-08-08T05:47:04;3.45;;;1.20;;
23044;SDS011;11690;51.716;23.066;2023-08-08T05:49:32;3.22;;;0.90;;
23044;SDS011;11690;51.716;23.066;2023-08-08T05:51:59;2.08;;;1.23;;
23044;SDS011;11690;51.716;23.066;2023-08-08T05:54:27;2.45;;;0.75;;
23044;SDS011;11690;51.716;23.066;2023-08-08T05:56:54;3.33;;;1.00;;
23044;SDS011;11690;51.716;23.066;2023-08-08T05:59:22;2.45;;;1.30;;
23044;SDS011;11690;51.716;23.066;2023-08-08T06:01:49;3.15;;;0.90;;
23044;SDS011;11690;51.716;23.066;2023-08-08T06:04:17;4.80;;;1.10;;
23044;SDS011;11690;51.716;23.066;2023-08-08T06:06:44;4.90;;;1.02;;
23044;SDS011;11690;51.716;23.066;2023-08-08T06:09:11;1.65;;;0.90;;
23044;SDS011;11690;51.716;23.066;2023-08-08T06:11:38;4.15;;;1.02;;
23044;SDS011;11690;51.716;23.066;2023-08-08T06:14:06;4.68;;;0.93;;
23044;SDS011;11690;51.716;23.066;2023-08-08T06:16:33;2.30;;;1.20;;
23044;SDS011;11690;51.716;23.066;2023-08-08T06:19:00;4.63;;;1.13;;
23044;SDS011;11690;51.716;23.066;2023-08-08T06:21:27;4.38;;;1.25;;
23044;SDS011;11690;51.716;23.066;2023-08-08T06:23:54;2.78;;;1.13;;
23044;SDS011;11690;51.716;23.066;2023-08-08T06:26:23;7.55;;;0.93;;
23044;SDS011;11690;51.716;23.066;2023-08-08T06:28:50;3.03;;;1.00;;
23044;SDS011;11690;51.716;23.066;2023-08-08T06:31:18;2.03;;;1.20;;
23044;SDS011;11690;51.716;23.066;2023-08-08T06:33:46;3.03;;;1.08;;
23044;SDS011;11690;51.716;23.066;2023-08-08T06:36:13;3.05;;;1.10;;
23044;SDS011;11690;51.716;23.066;2023-08-08T06:38:41;1.75;;;1.00;;
23044;SDS011;11690;51.716;23.066;2023-08-08T06:41:09;2.95;;;1.23;;
23044;SDS011;11690;51.716;23.066;2023-08-08T06:43:36;0.95;;;0.77;;
23044;SDS011;11690;51.716;23.066;2023-08-08T06:46:03;1.90;;;0.80;;
23044;SDS011;11690;51.716;23.066;2023-08-08T06:48:31;1.50;;;0.93;;
23044;SDS011;11690;51.716;23.066;2023-08-08T06:50:58;1.90;;;0.88;;
23044;SDS011;11690;51.716;23.066;2023-08-08T06:53:26;1.75;;;0.70;;
23044;SDS011;11690;51.716;23.066;2023-08-08T06:55:53;3.35;;;1.00;;
23044;SDS011;11690;51.716;23.066;2023-08-08T06:58:20;4.53;;;0.82;;
23044;SDS011;11690;51.716;23.066;2023-08-08T07:00:47;4.18;;;1.10;;
23044;SDS011;11690;51.716;23.066;2023-08-08T07:03:14;2.83;;;0.90;;
23044;SDS011;11690;51.716;23.066;2023-08-08T07:05:42;5.35;;;0.90;;
23044;SDS011;11690;51.716;23.066;2023-08-08T07:08:09;3.45;;;1.10;;
23044;SDS011;11690;51.716;23.066;2023-08-08T07:10:36;1.55;;;0.90;;
23044;SDS011;11690;51.716;23.066;2023-08-08T07:13:03;3.45;;;1.08;;
23044;SDS011;11690;51.716;23.066;2023-08-08T07:15:30;5.88;;;1.00;;
23044;SDS011;11690;51.716;23.066;2023-08-08T07:17:58;3.33;;;1.20;;
23044;SDS011;11690;51.716;23.066;2023-08-08T07:20:26;4.10;;;1.00;;
23044;SDS011;11690;51.716;23.066;2023-08-08T07:22:53;4.53;;;0.90;;
23044;SDS011;11690;51.716;23.066;2023-08-08T07:25:20;1.52;;;0.93;;
23044;SDS011;11690;51.716;23.066;2023-08-08T07:27:48;3.15;;;0.80;;
23044;SDS011;11690;51.716;23.066;2023-08-08T07:30:15;4.30;;;1.27;;
23044;SDS011;11690;51.716;23.066;2023-08-08T07:32:42;2.53;;;1.30;;
23044;SDS011;11690;51.716;23.066;2023-08-08T07:35:09;3.15;;;1.00;;
23044;SDS011;11690;51.716;23.066;2023-08-08T07:37:37;4.38;;;1.00;;
23044;SDS011;11690;51.716;23.066;2023-08-08T07:40:18;0.90;;;0.60;;
23044;SDS011;11690;51.716;23.066;2023-08-08T07:42:47;3.67;;;1.15;;
23044;SDS011;11690;51.716;23.066;2023-08-08T07:45:15;1.73;;;0.70;;
23044;SDS011;11690;51.716;23.066;2023-08-08T07:47:43;1.33;;;0.80;;
23044;SDS011;11690;51.716;23.066;2023-08-08T07:50:10;3.15;;;1.17;;
23044;SDS011;11690;51.716;23.066;2023-08-08T07:52:38;2.13;;;0.82;;
23044;SDS011;11690;51.716;23.066;2023-08-08T07:55:07;1.70;;;0.88;;
23044;SDS011;11690;51.716;23.066;2023-08-08T07:57:35;2.53;;;0.98;;
23044;SDS011;11690;51.716;23.066;2023-08-08T08:00:02;2.08;;;1.08;;
23044;SDS011;11690;51.716;23.066;2023-08-08T08:02:49;4.10;;;0.90;;
23044;SDS011;11690;51.716;23.066;2023-08-08T08:05:16;5.10;;;0.93;;
23044;SDS011;11690;51.716;23.066;2023-08-08T08:07:43;6.82;;;1.10;;
23044;SDS011;11690;51.716;23.066;2023-08-08T08:10:11;2.65;;;1.00;;
23044;SDS011;11690;51.716;23.066;2023-08-08T08:12:40;3.10;;;0.95;;
23044;SDS011;11690;51.716;23.066;2023-08-08T08:15:08;1.88;;;0.98;;
23044;SDS011;11690;51.716;23.066;2023-08-08T08:17:36;2.33;;;0.88;;
23044;SDS011;11690;51.716;23.066;2023-08-08T08:20:03;1.52;;;0.82;;
23044;SDS011;11690;51.716;23.066;2023-08-08T08:22:37;3.65;;;1.20;;
23044;SDS011;11690;51.716;23.066;2023-08-08T08:25:05;3.15;;;1.05;;
23044;SDS011;11690;51.716;23.066;2023-08-08T08:27:35;1.77;;;0.80;;
23044;SDS011;11690;51.716;23.066;2023-08-08T08:30:04;1.45;;;0.70;;
23044;SDS011;11690;51.716;23.066;2023-08-08T08:32:36;1.88;;;0.77;;
23044;SDS011;11690;51.716;23.066;2023-08-08T08:35:04;3.58;;;0.90;;
23044;SDS011;11690;51.716;23.066;2023-08-08T08:37:33;2.05;;;0.82;;
23044;SDS011;11690;51.716;23.066;2023-08-08T08:40:01;2.47;;;0.85;;
23044;SDS011;11690;51.716;23.066;2023-08-08T08:42:32;2.03;;;1.30;;
23044;SDS011;11690;51.716;23.066;2023-08-08T08:44:59;1.98;;;1.08;;
23044;SDS011;11690;51.716;23.066;2023-08-08T08:47:29;1.00;;;0.90;;
23044;SDS011;11690;51.716;23.066;2023-08-08T08:49:58;3.58;;;1.63;;
23044;SDS011;11690;51.716;23.066;2023-08-08T08:52:25;3.05;;;2.15;;
23044;SDS011;11690;51.716;23.066;2023-08-08T08:54:52;7.35;;;3.08;;
23044;SDS011;11690;51.716;23.066;2023-08-08T08:57:23;6.50;;;2.92;;
23044;SDS011;11690;51.716;23.066;2023-08-08T08:59:51;4.85;;;2.97;;
23044;SDS011;11690;51.716;23.066;2023-08-08T09:02:19;4.78;;;3.83;;
23044;SDS011;11690;51.716;23.066;2023-08-08T09:04:46;5.15;;;3.70;;
23044;SDS011;11690;51.716;23.066;2023-08-08T09:07:14;4.90;;;2.67;;
23044;SDS011;11690;51.716;23.066;2023-08-08T09:09:44;6.55;;;2.80;;
23044;SDS011;11690;51.716;23.066;2023-08-08T09:12:12;4.38;;;2.53;;
23044;SDS011;11690;51.716;23.066;2023-08-08T09:14:42;3.47;;;2.60;;
23044;SDS011;11690;51.716;23.066;2023-08-08T09:17:13;4.85;;;3.10;;
23044;SDS011;11690;51.716;23.066;2023-08-08T09:19:44;5.63;;;2.72;;
23044;SDS011;11690;51.716;23.066;2023-08-08T09:22:12;6.90;;;3.30;;
23044;SDS011;11690;51.716;23.066;2023-08-08T09:24:40;6.63;;;3.10;;
23044;SDS011;11690;51.716;23.066;2023-08-08T09:27:08;5.20;;;2.80;;
23044;SDS011;11690;51.716;23.066;2023-08-08T09:29:36;4.70;;;2.35;;
23044;SDS011;11690;51.716;23.066;2023-08-08T09:32:05;5.47;;;2.30;;
23044;SDS011;11690;51.716;23.066;2023-08-08T09:34:33;3.28;;;1.95;;
23044;SDS011;11690;51.716;23.066;2023-08-08T09:37:01;5.20;;;2.10;;
23044;SDS011;11690;51.716;23.066;2023-08-08T09:39:29;1.75;;;1.58;;
23044;SDS011;11690;51.716;23.066;2023-08-08T09:41:56;5.68;;;2.05;;
23044;SDS011;11690;51.716;23.066;2023-08-08T09:44:24;5.45;;;1.60;;
23044;SDS011;11690;51.716;23.066;2023-08-08T09:46:55;1.52;;;1.33;;
23044;SDS011;11690;51.716;23.066;2023-08-08T09:49:22;3.92;;;1.40;;
23044;SDS011;11690;51.716;23.066;2023-08-08T09:51:50;2.80;;;1.52;;
23044;SDS011;11690;51.716;23.066;2023-08-08T09:54:17;5.05;;;1.13;;
23044;SDS011;11690;51.716;23.066;2023-08-08T09:56:45;4.13;;;1.35;;
23044;SDS011;11690;51.716;23.066;2023-08-08T09:59:12;2.72;;;1.50;;
23044;SDS011;11690;51.716;23.066;2023-08-08T10:01:40;1.65;;;0.90;;
23044;SDS011;11690;51.716;23.066;2023-08-08T10:04:11;5.72;;;1.20;;
23044;SDS011;11690;51.716;23.066;2023-08-08T10:06:39;5.68;;;1.33;;
23044;SDS011;11690;51.716;23.066;2023-08-08T10:09:06;3.13;;;0.98;;
23044;SDS011;11690;51.716;23.066;2023-08-08T10:11:34;1.92;;;1.17;;
23044;SDS011;11690;51.716;23.066;2023-08-08T10:14:01;1.60;;;1.00;;
23044;SDS011;11690;51.716;23.066;2023-08-08T10:16:33;3.75;;;1.17;;
23044;SDS011;11690;51.716;23.066;2023-08-08T10:19:01;2.03;;;1.10;;
23044;SDS011;11690;51.716;23.066;2023-08-08T10:21:34;2.15;;;0.90;;
23044;SDS011;11690;51.716;23.066;2023-08-08T10:24:05;1.52;;;0.88;;
23044;SDS011;11690;51.716;23.066;2023-08-08T10:26:50;1.85;;;0.98;;
23044;SDS011;11690;51.716;23.066;2023-08-08T10:29:19;1.23;;;0.73;;
23044;SDS011;11690;51.716;23.066;2023-08-08T10:31:53;1.77;;;0.80;;
23044;SDS011;11690;51.716;23.066;2023-08-08T10:34:41;1.83;;;0.70;;
23044;SDS011;11690;51.716;23.066;2023-08-08T10:37:16;2.15;;;0.90;;
23044;SDS011;11690;51.716;23.066;2023-08-08T10:42:22;1.20;;;0.85;;
23044;SDS011;11690;51.716;23.066;2023-08-08T10:47:25;1.20;;;0.77;;
23044;SDS011;11690;51.716;23.066;2023-08-08T10:52:53;1.60;;;0.95;;
23044;SDS011;11690;51.716;23.066;2023-08-08T10:55:22;1.60;;;0.70;;
23044;SDS011;11690;51.716;23.066;2023-08-08T10:57:54;2.47;;;0.65;;
23044;SDS011;11690;51.716;23.066;2023-08-08T11:00:28;1.80;;;0.75;;
23044;SDS011;11690;51.716;23.066;2023-08-08T11:02:57;2.70;;;0.80;;
23044;SDS011;11690;51.716;23.066;2023-08-08T11:05:28;2.33;;;0.70;;
23044;SDS011;11690;51.716;23.066;2023-08-08T11:07:56;1.70;;;1.00;;
23044;SDS011;11690;51.716;23.066;2023-08-08T11:10:24;1.52;;;0.60;;
23044;SDS011;11690;51.716;23.066;2023-08-08T11:12:56;2.22;;;0.75;;
23044;SDS011;11690;51.716;23.066;2023-08-08T11:15:25;1.40;;;0.85;;
23044;SDS011;11690;51.716;23.066;2023-08-08T11:17:57;3.00;;;1.08;;
23044;SDS011;11690;51.716;23.066;2023-08-08T11:20:28;1.90;;;0.50;;
23044;SDS011;11690;51.716;23.066;2023-08-08T11:22:57;2.15;;;0.82;;
23044;SDS011;11690;51.716;23.066;2023-08-08T11:25:28;1.75;;;0.70;;
23044;SDS011;11690;51.716;23.066;2023-08-08T11:27:57;2.92;;;0.68;;
23044;SDS011;11690;51.716;23.066;2023-08-08T11:30:28;2.40;;;0.95;;
23044;SDS011;11690;51.716;23.066;2023-08-08T11:32:56;5.93;;;0.88;;
23044;SDS011;11690;51.716;23.066;2023-08-08T11:35:27;2.28;;;0.90;;
23044;SDS011;11690;51.716;23.066;2023-08-08T11:37:55;1.67;;;0.65;;
23044;SDS011;11690;51.716;23.066;2023-08-08T11:40:25;2.08;;;0.80;;
23044;SDS011;11690;51.716;23.066;2023-08-08T11:42:55;3.08;;;1.02;;
23044;SDS011;11690;51.716;23.066;2023-08-08T11:45:23;2.13;;;1.20;;
23044;SDS011;11690;51.716;23.066;2023-08-08T11:47:54;5.32;;;1.00;;
23044;SDS011;11690;51.716;23.066;2023-08-08T11:50:22;3.08;;;0.93;;
23044;SDS011;11690;51.716;23.066;2023-08-08T11:52:52;3.45;;;0.90;;
23044;SDS011;11690;51.716;23.066;2023-08-08T11:55:21;2.38;;;1.20;;
23044;SDS011;11690;51.716;23.066;2023-08-08T11:57:55;3.95;;;0.85;;
23044;SDS011;11690;51.716;23.066;2023-08-08T12:00:29;3.15;;;0.93;;
23044;SDS011;11690;51.716;23.066;2023-08-08T12:02:57;5.18;;;0.93;;
23044;SDS011;11690;51.716;23.066;2023-08-08T12:05:25;3.75;;;0.70;;
23044;SDS011;11690;51.716;23.066;2023-08-08T12:07:54;4.82;;;0.70;;
23044;SDS011;11690;51.716;23.066;2023-08-08T12:10:21;1.08;;;0.70;;
23044;SDS011;11690;51.716;23.066;2023-08-08T12:12:53;1.58;;;0.60;;
23044;SDS011;11690;51.716;23.066;2023-08-08T12:15:22;3.85;;;0.90;;
23044;SDS011;11690;51.716;23.066;2023-08-08T12:17:49;1.83;;;0.80;;
23044;SDS011;11690;51.716;23.066;2023-08-08T12:20:16;2.70;;;0.88;;
23044;SDS011;11690;51.716;23.066;2023-08-08T12:22:44;1.95;;;0.90;;
23044;SDS011;11690;51.716;23.066;2023-08-08T12:25:11;1.55;;;0.93;;
23044;SDS011;11690;51.716;23.066;2023-08-08T12:27:40;4.22;;;1.10;;
23044;SDS011;11690;51.716;23.066;2023-08-08T12:30:07;1.60;;;1.00;;
23044;SDS011;11690;51.716;23.066;2023-08-08T12:32:35;3.75;;;1.10;;
23044;SDS011;11690;51.716;23.066;2023-08-08T12:35:02;0.80;;;0.68;;
23044;SDS011;11690;51.716;23.066;2023-08-08T12:37:30;3.58;;;1.02;;
23044;SDS011;11690;51.716;23.066;2023-08-08T12:39:57;1.20;;;0.82;;
23044;SDS011;11690;51.716;23.066;2023-08-08T12:42:24;3.38;;;0.80;;
23044;SDS011;11690;51.716;23.066;2023-08-08T12:44:53;1.17;;;0.85;;
23044;SDS011;11690;51.716;23.066;2023-08-08T12:47:20;1.42;;;0.85;;
23044;SDS011;11690;51.716;23.066;2023-08-08T12:49:47;1.08;;;0.90;;
23044;SDS011;11690;51.716;23.066;2023-08-08T12:52:15;2.15;;;1.10;;
23044;SDS011;11690;51.716;23.066;2023-08-08T12:54:42;5.03;;;1.10;;
23044;SDS011;11690;51.716;23.066;2023-08-08T12:57:09;2.38;;;0.85;;
23044;SDS011;11690;51.716;23.066;2023-08-08T12:59:36;1.92;;;1.00;;
23044;SDS011;11690;51.716;23.066;2023-08-08T13:02:04;2.58;;;0.90;;
23044;SDS011;11690;51.716;23.066;2023-08-08T13:04:31;1.92;;;1.00;;
23044;SDS011;11690;51.716;23.066;2023-08-08T13:06:58;3.67;;;1.15;;
23044;SDS011;11690;51.716;23.066;2023-08-08T13:09:25;3.28;;;1.17;;
23044;SDS011;11690;51.716;23.066;2023-08-08T13:11:53;2.60;;;0.90;;
23044;SDS011;11690;51.716;23.066;2023-08-08T13:14:20;4.00;;;0.88;;
23044;SDS011;11690;51.716;23.066;2023-08-08T13:16:48;3.85;;;1.52;;
23044;SDS011;11690;51.716;23.066;2023-08-08T13:19:15;4.40;;;0.80;;
23044;SDS011;11690;51.716;23.066;2023-08-08T13:21:46;3.28;;;0.75;;
23044;SDS011;11690;51.716;23.066;2023-08-08T13:24:13;1.67;;;0.77;;
23044;SDS011;11690;51.716;23.066;2023-08-08T13:26:41;2.63;;;0.73;;
23044;SDS011;11690;51.716;23.066;2023-08-08T13:29:08;5.32;;;0.80;;
23044;SDS011;11690;51.716;23.066;2023-08-08T13:31:35;2.22;;;0.70;;
23044;SDS011;11690;51.716;23.066;2023-08-08T13:34:03;1.20;;;0.50;;
23044;SDS011;11690;51.716;23.066;2023-08-08T13:36:30;1.98;;;0.60;;
23044;SDS011;11690;51.716;23.066;2023-08-08T13:38:57;1.30;;;0.60;;
23044;SDS011;11690;51.716;23.066;2023-08-08T13:41:25;2.80;;;0.93;;
23044;SDS011;11690;51.716;23.066;2023-08-08T13:43:52;6.43;;;0.80;;
23044;SDS011;11690;51.716;23.066;2023-08-08T13:46:19;17.95;;;1.20;;
23044;SDS011;11690;51.716;23.066;2023-08-08T13:48:46;2.28;;;0.65;;
23044;SDS011;11690;51.716;23.066;2023-08-08T13:51:14;0.77;;;0.40;;
23044;SDS011;11690;51.716;23.066;2023-08-08T13:53:41;1.00;;;0.50;;
23044;SDS011;11690;51.716;23.066;2023-08-08T13:56:08;0.80;;;0.50;;
23044;SDS011;11690;51.716;23.066;2023-08-08T13:58:37;2.17;;;0.90;;
23044;SDS011;11690;51.716;23.066;2023-08-08T14:01:04;0.95;;;0.50;;
23044;SDS011;11690;51.716;23.066;2023-08-08T14:03:31;2.53;;;0.80;;
23044;SDS011;11690;51.716;23.066;2023-08-08T14:05:59;7.97;;;0.75;;
23044;SDS011;11690;51.716;23.066;2023-08-08T14:08:26;0.82;;;0.57;;
23044;SDS011;11690;51.716;23.066;2023-08-08T14:10:54;5.32;;;0.75;;
23044;SDS011;11690;51.716;23.066;2023-08-08T14:13:21;2.90;;;0.80;;
23044;SDS011;11690;51.716;23.066;2023-08-08T14:15:48;4.00;;;0.50;;
23044;SDS011;11690;51.716;23.066;2023-08-08T14:18:15;1.55;;;0.70;;
23044;SDS011;11690;51.716;23.066;2023-08-08T14:20:43;0.60;;;0.40;;
23044;SDS011;11690;51.716;23.066;2023-08-08T14:23:10;1.33;;;0.82;;
23044;SDS011;11690;51.716;23.066;2023-08-08T14:25:37;4.95;;;0.80;;
23044;SDS011;11690;51.716;23.066;2023-08-08T14:28:04;2.45;;;0.93;;
23044;SDS011;11690;51.716;23.066;2023-08-08T14:30:31;10.07;;;1.00;;
23044;SDS011;11690;51.716;23.066;2023-08-08T14:32:58;11.90;;;1.55;;
23044;SDS011;11690;51.716;23.066;2023-08-08T14:35:26;11.70;;;1.25;;
23044;SDS011;11690;51.716;23.066;2023-08-08T14:37:54;1.13;;;0.60;;
23044;SDS011;11690;51.716;23.066;2023-08-08T14:40:22;1.05;;;0.60;;
23044;SDS011;11690;51.716;23.066;2023-08-08T14:42:49;1.52;;;0.60;;
23044;SDS011;11690;51.716;23.066;2023-08-08T14:45:18;1.13;;;0.55;;
23044;SDS011;11690;51.716;23.066;2023-08-08T14:47:45;3.22;;;0.93;;
23044;SDS011;11690;51.716;23.066;2023-08-08T14:50:12;1.70;;;0.90;;
23044;SDS011;11690;51.716;23.066;2023-08-08T14:52:40;17.15;;;0.95;;